West Peterborough, NH (03468)

10:20 AM EST on November 24, 2014 (GMT -0500)
HADS NUBANUSIT BROOK AT MACDOWELL DAM USARMY-COE | Change Station
CLOSE
Current Station
Personal Weather Station
Location: West Peterborough, NH
Elevation: 931 ft
Nearby Weather Stations

Elev 931 ft 42.89 °N, 71.97 °W | Updated 50 minutes ago

Rain
Rain
54 °F
Feels Like 54 °F
N
Wind Variable Wind from North
Gusts 0.0 mph

Today
High -- | Low -- °F
--% Chance of Precip.
Yesterday
High -- | Low -- °F
Precip. -- in
6:50 AM 4:17 PM
Waxing Crescent, 5% visible
Pressure 29.67 in
Visibility 5.0 miles
Clouds Scattered Clouds 900 ft
Overcast 1500 ft
Dew Point Not available.
Humidity Not available.
Rainfall 0.36 in
Snow Depth Not available.
UV 1 out of 12
Pollen .10 out of 12
Air Quality Not available.
Flu Activity Not available.
SPECI KAFN 241516Z AUTO 19014KT 5SM -RA BR SCT009 OVC015 16/14 A2967 RMK AO2 P0002 T01560139

More Conditions Fewer Conditions

Pressure 29.67 in
Visibility 5.0 miles
Clouds Scattered Clouds 900 ft
Overcast 1500 ft
Dew Point Not available.
Humidity Not available.
Rainfall 0.36 in
Snow Depth Not available.
UV 1 out of 12
Pollen .10 out of 12
Air Quality Not available.
Flu Activity Not available.
SPECI KAFN 241516Z AUTO 19014KT 5SM -RA BR SCT009 OVC015 16/14 A2967 RMK AO2 P0002 T01560139

More Conditions Fewer Conditions

10-Day Weather Forecast

Almanac

Astronomy

Nov. 24, 2014 Rise Set
Actual Time
Civil Twilight
Nautical Twilight
Astronomical Twilight
Moon
Length of Visible Light
Length of Day
Tomorrow will be .
, % of the Moon is Illuminated

Today's Extremes

State Highs State Lows

Community

WunderPhotos

Upload Photos

1,773,359 photos uploaded!

WunderBlogs® & News

Nearby

Air Quality

  Air Quality AQ Index Pollutant
Not available.

Snow Depth

Station Depth Elevation

Earthquake Activity

City Distance Mag. Time & Date
Minimum magnitude displayed is 2.5.

Coastal Water Temperatures

Place Temperature

Nearby Weather Stations